Time;durP1;ratioP1;P1;durP2;ratioP2;P2;SDS_P1;SDS_P2;PMS_P1;PMS_P2;Temp;Humidity;BMP_temperature;BMP_pressure;BME280_temperature;BME280_humidity;BME280_pressure;Samples;Min_cycle;Max_cycle;Signal;HPM_P1;HPM_P2
2021/04/03 00:02:01;;;;;;;24.48;8.75;;;6.00;89.50;;;;;;5050424;28;20072;-60
2021/04/03 00:04:26;;;;;;;20.20;8.02;;;6.20;89.20;;;;;;5054729;28;20036;-59
2021/04/03 00:06:52;;;;;;;20.42;9.88;;;6.20;89.30;;;;;;5053891;28;20035;-60
2021/04/03 00:09:18;;;;;;;18.63;9.00;;;6.20;89.10;;;;;;5058964;28;20025;-59
2021/04/03 00:11:43;;;;;;;22.83;8.60;;;6.10;88.70;;;;;;5056211;28;20066;-59
2021/04/03 00:14:09;;;;;;;19.17;7.75;;;6.00;89.20;;;;;;5055449;28;20103;-60
2021/04/03 00:16:34;;;;;;;20.77;8.02;;;6.00;89.40;;;;;;5058685;28;20070;-58
2021/04/03 00:19:00;;;;;;;28.08;8.65;;;5.90;89.20;;;;;;5054910;28;20041;-62
2021/04/03 00:21:25;;;;;;;26.58;7.95;;;6.10;88.70;;;;;;5054158;28;20025;-61
2021/04/03 00:23:51;;;;;;;26.55;8.45;;;6.00;89.00;;;;;;5055247;28;20041;-61
2021/04/03 00:26:17;;;;;;;26.67;8.35;;;6.10;88.50;;;;;;5056385;28;20117;-60
2021/04/03 00:28:43;;;;;;;21.52;7.70;;;6.10;88.60;;;;;;5058425;28;20090;-61
2021/04/03 00:31:09;;;;;;;20.75;8.07;;;6.00;88.70;;;;;;5056255;28;20151;-58
2021/04/03 00:33:34;;;;;;;17.20;7.78;;;6.10;88.10;;;;;;5054481;28;20033;-57
2021/04/03 00:36:00;;;;;;;23.40;8.15;;;6.20;87.10;;;;;;5056843;28;20033;-60
2021/04/03 00:38:26;;;;;;;21.77;8.32;;;6.10;87.10;;;;;;5057082;28;20032;-59
2021/04/03 00:40:51;;;;;;;24.17;9.00;;;6.20;86.80;;;;;;5054100;28;20029;-57
2021/04/03 00:43:20;;;;;;;34.60;8.45;;;6.20;86.90;;;;;;5054637;28;20025;-60
2021/04/03 00:45:46;;;;;;;25.80;9.32;;;6.10;87.10;;;;;;5038107;28;20025;-59
2021/04/03 00:48:13;;;;;;;23.70;9.00;;;6.20;87.00;;;;;;5054097;28;20056;-59
2021/04/03 00:50:40;;;;;;;26.95;8.57;;;6.20;86.80;;;;;;5054609;28;20036;-61
2021/04/03 00:53:09;;;;;;;23.23;8.63;;;6.10;86.70;;;;;;5056104;28;20024;-60
2021/04/03 00:55:35;;;;;;;22.85;8.70;;;6.10;87.90;;;;;;5056724;28;20133;-60
2021/04/03 00:58:01;;;;;;;19.67;8.00;;;6.00;87.40;;;;;;5054624;28;20496;-60
2021/04/03 01:00:26;;;;;;;18.58;8.02;;;6.10;87.60;;;;;;5037430;28;20511;-61
2021/04/03 01:02:52;;;;;;;23.15;8.77;;;6.00;87.50;;;;;;5055037;28;20037;-59
2021/04/03 01:05:23;;;;;;;18.85;7.95;;;6.10;87.40;;;;;;5055042;28;20179;-61
2021/04/03 01:07:49;;;;;;;24.40;8.65;;;6.00;87.30;;;;;;5041816;28;20514;-60
2021/04/03 01:10:21;;;;;;;23.48;8.52;;;6.10;88.30;;;;;;5040410;28;20354;-61
2021/04/03 01:12:55;;;;;;;25.80;8.85;;;6.00;87.70;;;;;;5054952;28;20032;-58
2021/04/03 01:15:31;;;;;;;29.40;8.98;;;6.00;87.80;;;;;;5059209;28;20024;-61
2021/04/03 01:18:09;;;;;;;23.55;9.45;;;6.10;87.90;;;;;;5055897;28;20033;-60
2021/04/03 01:20:56;;;;;;;27.50;9.50;;;6.20;87.50;;;;;;5054419;28;20037;-60
2021/04/03 01:23:47;;;;;;;28.40;9.52;;;6.20;87.70;;;;;;5053646;28;20551;-61
2021/04/03 01:26:40;;;;;;;19.67;9.00;;;6.10;87.80;;;;;;5058345;28;20059;-57
2021/04/03 01:29:35;;;;;;;24.48;8.63;;;6.20;87.30;;;;;;5056137;28;20056;-61
2021/04/03 01:32:04;;;;;;;24.38;10.20;;;6.10;87.10;;;;;;5056532;28;20025;-59
2021/04/03 01:34:32;;;;;;;26.00;8.57;;;6.00;87.80;;;;;;5061336;28;20045;-59
2021/04/03 01:37:03;;;;;;;21.35;8.30;;;5.90;88.40;;;;;;5053223;28;20029;-60
2021/04/03 01:39:32;;;;;;;16.05;7.32;;;5.80;88.50;;;;;;5060015;28;20047;-57
2021/04/03 01:42:03;;;;;;;25.63;8.48;;;5.90;88.40;;;;;;5051813;28;20125;-59
2021/04/03 01:44:35;;;;;;;20.65;8.73;;;6.00;88.40;;;;;;5052598;28;20029;-60
2021/04/03 01:47:03;;;;;;;23.02;7.68;;;5.90;87.80;;;;;;5052688;28;20013;-58
2021/04/03 01:49:31;;;;;;;24.13;8.43;;;6.00;87.50;;;;;;5038269;28;20083;-57
2021/04/03 01:51:58;;;;;;;20.67;8.32;;;6.10;87.40;;;;;;5055332;28;20021;-60
2021/04/03 01:54:27;;;;;;;23.88;8.68;;;6.00;86.90;;;;;;5056000;28;20033;-58
2021/04/03 01:56:54;;;;;;;26.27;9.43;;;6.00;87.60;;;;;;5057959;28;20103;-63
2021/04/03 01:59:21;;;;;;;25.70;8.90;;;5.80;87.70;;;;;;5059043;28;20033;-60
2021/04/03 02:01:48;;;;;;;21.30;8.20;;;5.90;88.10;;;;;;5085716;28;20502;-61
2021/04/03 02:04:16;;;;;;;17.70;7.40;;;5.90;87.60;;;;;;5077205;28;20499;-59
2021/04/03 02:06:43;;;;;;;25.45;8.50;;;5.90;87.70;;;;;;5093667;28;20024;-58
2021/04/03 02:09:11;;;;;;;25.98;8.05;;;5.90;87.30;;;;;;5078858;28;20050;-60
2021/04/03 02:11:43;;;;;;;22.27;7.88;;;5.70;87.70;;;;;;5073009;28;20051;-59
2021/04/03 02:14:09;;;;;;;17.55;8.23;;;5.80;88.00;;;;;;5070492;28;20047;-60
2021/04/03 02:16:36;;;;;;;20.55;8.32;;;5.80;87.60;;;;;;5092058;28;20083;-60
2021/04/03 02:19:08;;;;;;;24.38;8.15;;;5.90;87.30;;;;;;5058260;28;20136;-58
2021/04/03 02:21:35;;;;;;;26.02;8.25;;;5.90;87.00;;;;;;5088018;28;20031;-58
2021/04/03 02:24:02;;;;;;;23.73;9.43;;;5.90;87.70;;;;;;5078878;28;20492;-59
2021/04/03 02:26:31;;;;;;;22.48;7.82;;;5.90;87.70;;;;;;5088805;28;20040;-60
2021/04/03 02:28:57;;;;;;;19.42;8.68;;;5.80;87.70;;;;;;5086954;28;20085;-59
2021/04/03 02:31:23;;;;;;;25.90;8.13;;;5.80;87.80;;;;;;5092501;28;20035;-59
2021/04/03 02:33:51;;;;;;;22.67;7.93;;;5.90;88.00;;;;;;5082216;28;20376;-59
2021/04/03 02:36:16;;;;;;;22.08;8.32;;;5.80;87.50;;;;;;5052756;28;20041;-56
2021/04/03 02:38:42;;;;;;;27.67;8.25;;;5.70;87.90;;;;;;5071611;28;20031;-61
2021/04/03 02:41:08;;;;;;;25.70;8.02;;;5.70;88.40;;;;;;5074938;28;20115;-61
2021/04/03 02:43:44;;;;;;;20.98;8.35;;;5.60;88.70;;;;;;5057196;28;20029;-61
2021/04/03 02:46:27;;;;;;;21.67;8.32;;;5.60;88.70;;;;;;5068429;28;20060;-60
2021/04/03 02:48:56;;;;;;;18.27;7.30;;;5.70;88.60;;;;;;5076951;28;20032;-59
2021/04/03 02:51:28;;;;;;;24.15;8.63;;;5.70;88.50;;;;;;5092839;28;20036;-60
2021/04/03 02:53:57;;;;;;;19.65;7.47;;;5.50;88.50;;;;;;5088510;28;20056;-60
2021/04/03 02:56:24;;;;;;;24.05;7.75;;;5.50;88.70;;;;;;5093101;28;20030;-58
2021/04/03 02:58:52;;;;;;;21.95;8.10;;;5.50;88.90;;;;;;5085813;28;20124;-62
2021/04/03 03:01:18;;;;;;;21.05;7.65;;;5.40;88.60;;;;;;5086737;28;20081;-58
2021/04/03 03:03:45;;;;;;;21.90;7.97;;;5.30;89.10;;;;;;5059847;28;20037;-60
2021/04/03 03:06:11;;;;;;;21.40;7.75;;;5.40;89.00;;;;;;5081948;28;20048;-58
2021/04/03 03:08:38;;;;;;;26.50;9.57;;;5.50;88.70;;;;;;5071437;28;20086;-59
2021/04/03 03:11:04;;;;;;;27.85;8.13;;;5.40;88.70;;;;;;5055799;28;20029;-61
2021/04/03 03:13:33;;;;;;;28.60;8.57;;;5.30;89.30;;;;;;5079259;28;20085;-59
2021/04/03 03:16:03;;;;;;;25.77;8.18;;;5.30;89.10;;;;;;5080218;28;20028;-60
2021/04/03 03:18:30;;;;;;;31.50;8.32;;;5.30;89.10;;;;;;5063276;28;20067;-59
2021/04/03 03:20:57;;;;;;;27.38;7.68;;;5.20;89.70;;;;;;5076720;28;20031;-61
2021/04/03 03:23:23;;;;;;;26.65;8.20;;;5.30;89.50;;;;;;5092121;28;20039;-60
2021/04/03 03:26:02;;;;;;;27.25;7.80;;;5.20;89.10;;;;;;5056963;28;20699;-60
2021/04/03 03:28:32;;;;;;;28.10;8.13;;;5.20;89.30;;;;;;5047580;28;20087;-60
2021/04/03 03:30:57;;;;;;;27.00;7.90;;;5.10;89.50;;;;;;5035515;28;20439;-57
2021/04/03 03:33:23;;;;;;;31.00;8.18;;;5.10;89.80;;;;;;5029059;28;20037;-60
2021/04/03 03:35:49;;;;;;;22.42;7.97;;;5.00;89.70;;;;;;5037139;28;20029;-59
2021/04/03 03:38:16;;;;;;;28.80;8.10;;;5.00;89.80;;;;;;5028948;28;20095;-60
2021/04/03 03:40:43;;;;;;;27.55;8.65;;;5.00;89.70;;;;;;5036037;28;20485;-58
2021/04/03 03:43:16;;;;;;;22.38;7.45;;;5.00;89.60;;;;;;5028939;28;20137;-59
2021/04/03 03:45:42;;;;;;;27.27;8.40;;;5.00;89.80;;;;;;5037294;28;20034;-60
2021/04/03 03:48:08;;;;;;;24.50;7.80;;;4.90;90.10;;;;;;5028740;28;20042;-59
2021/04/03 03:50:33;;;;;;;23.85;7.30;;;4.90;90.00;;;;;;5036549;28;20026;-60
2021/04/03 03:52:59;;;;;;;29.05;8.65;;;4.90;89.80;;;;;;5028516;28;20037;-60
2021/04/03 03:55:24;;;;;;;24.05;8.00;;;4.80;89.90;;;;;;5036596;28;20033;-59
2021/04/03 03:57:50;;;;;;;21.67;7.78;;;4.80;90.00;;;;;;5028634;28;20037;-60
2021/04/03 04:00:16;;;;;;;19.25;6.72;;;4.70;90.20;;;;;;5027474;28;20042;-61
2021/04/03 04:02:41;;;;;;;22.60;7.47;;;4.70;90.00;;;;;;5028690;28;20030;-60
2021/04/03 04:05:08;;;;;;;26.42;7.55;;;4.70;90.20;;;;;;5029402;28;20041;-60
2021/04/03 04:07:35;;;;;;;24.88;7.80;;;4.60;90.30;;;;;;5028475;28;20477;-60
2021/04/03 04:10:02;;;;;;;25.25;6.82;;;4.60;90.30;;;;;;5029528;28;20052;-59
2021/04/03 04:12:29;;;;;;;23.67;8.43;;;4.60;90.40;;;;;;5028323;28;20033;-62
2021/04/03 04:14:54;;;;;;;23.05;6.75;;;4.70;90.30;;;;;;5028764;28;20037;-59
2021/04/03 04:17:20;;;;;;;31.05;8.05;;;4.60;90.30;;;;;;5028458;28;20517;-56
2021/04/03 04:19:46;;;;;;;23.15;7.57;;;4.60;90.30;;;;;;5029937;28;20041;-60
2021/04/03 04:22:11;;;;;;;25.73;7.47;;;4.50;90.40;;;;;;5039848;28;20370;-61
2021/04/03 04:24:37;;;;;;;31.20;8.23;;;4.50;90.40;;;;;;5028122;28;20338;-59
2021/04/03 04:27:03;;;;;;;26.48;7.90;;;4.50;90.30;;;;;;5041531;28;20379;-60
2021/04/03 04:29:28;;;;;;;27.42;7.38;;;4.60;90.20;;;;;;5027741;28;20037;-60
2021/04/03 04:31:54;;;;;;;21.83;6.72;;;4.70;90.00;;;;;;5026722;28;20096;-56
2021/04/03 04:34:20;;;;;;;23.70;6.80;;;4.60;90.00;;;;;;5034635;28;20057;-59
2021/04/03 04:36:45;;;;;;;24.10;6.88;;;4.60;90.00;;;;;;5018975;28;20050;-59
2021/04/03 04:39:11;;;;;;;25.77;6.88;;;4.50;90.30;;;;;;5021833;28;20030;-60
2021/04/03 04:41:37;;;;;;;25.55;7.18;;;4.60;90.30;;;;;;5014877;28;20069;-60
2021/04/03 04:44:02;;;;;;;25.92;7.75;;;4.40;90.40;;;;;;5013666;28;20038;-60
2021/04/03 04:46:28;;;;;;;20.52;7.13;;;4.50;90.30;;;;;;5015162;28;20066;-60
2021/04/03 04:48:54;;;;;;;24.95;7.30;;;4.50;90.20;;;;;;5014793;28;20446;-60
2021/04/03 04:51:19;;;;;;;24.42;6.85;;;4.50;90.10;;;;;;5015085;28;20027;-59
2021/04/03 04:53:45;;;;;;;27.35;8.45;;;4.50;90.00;;;;;;5021663;28;20761;-60
2021/04/03 04:56:11;;;;;;;26.50;7.30;;;4.40;90.20;;;;;;5014569;28;20402;-59
2021/04/03 04:58:36;;;;;;;29.55;7.55;;;4.50;90.20;;;;;;5004387;28;20038;-62
2021/04/03 05:01:02;;;;;;;19.60;6.97;;;4.50;90.40;;;;;;5014544;28;20486;-60
2021/04/03 05:03:28;;;;;;;21.80;6.93;;;4.60;89.80;;;;;;5003154;28;20106;-59
2021/04/03 05:05:54;;;;;;;18.52;7.50;;;4.60;90.00;;;;;;5019823;28;20119;-60
2021/04/03 05:08:19;;;;;;;25.42;6.78;;;4.60;90.00;;;;;;5013885;28;20489;-61
2021/04/03 05:10:45;;;;;;;24.33;7.10;;;4.60;89.60;;;;;;5013177;28;20038;-59
2021/04/03 05:13:11;;;;;;;21.45;6.88;;;4.60;89.90;;;;;;5017196;28;20400;-60
2021/04/03 05:15:36;;;;;;;27.27;7.03;;;4.50;90.10;;;;;;5023643;28;20104;-57
2021/04/03 05:18:02;;;;;;;24.00;6.95;;;4.50;89.80;;;;;;5014978;28;20124;-60
2021/04/03 05:20:28;;;;;;;21.80;6.43;;;4.60;90.00;;;;;;5013559;28;20044;-59
2021/04/03 05:22:54;;;;;;;32.20;7.05;;;4.50;90.00;;;;;;5020362;28;20041;-61
2021/04/03 05:25:19;;;;;;;21.25;7.07;;;4.50;90.10;;;;;;5012503;28;20026;-63
2021/04/03 05:27:45;;;;;;;27.30;7.75;;;4.60;89.70;;;;;;5018495;28;20108;-60
2021/04/03 05:30:12;;;;;;;25.92;7.25;;;4.60;89.70;;;;;;5015960;28;20117;-60
2021/04/03 05:32:37;;;;;;;21.67;7.10;;;4.60;90.00;;;;;;5023474;28;20374;-60
2021/04/03 05:35:04;;;;;;;21.95;7.63;;;4.50;90.10;;;;;;5013770;28;20030;-58
2021/04/03 05:37:30;;;;;;;22.95;6.97;;;4.60;90.00;;;;;;5023929;28;20121;-58
2021/04/03 05:39:55;;;;;;;25.67;7.53;;;4.60;90.10;;;;;;5013514;28;20125;-60
2021/04/03 05:42:21;;;;;;;19.17;6.93;;;4.70;89.70;;;;;;5023913;28;20045;-58
2021/04/03 05:44:48;;;;;;;28.35;7.97;;;4.80;89.40;;;;;;5012464;28;20026;-57
2021/04/03 05:47:15;;;;;;;20.90;7.57;;;4.70;89.30;;;;;;5020688;28;20405;-60
2021/04/03 05:49:41;;;;;;;22.90;7.38;;;4.60;90.00;;;;;;5013081;28;20592;-60
2021/04/03 05:52:08;;;;;;;20.65;7.90;;;4.60;90.10;;;;;;5024122;28;20776;-57
2021/04/03 05:54:39;;;;;;;28.17;8.20;;;4.60;89.80;;;;;;5013178;28;20066;-59
2021/04/03 05:57:05;;;;;;;26.77;8.35;;;4.60;89.90;;;;;;5024589;28;20094;-59
2021/04/03 05:59:32;;;;;;;24.50;8.95;;;4.60;90.10;;;;;;5013402;28;20026;-58
2021/04/03 06:01:58;;;;;;;18.83;7.80;;;4.70;89.90;;;;;;5014117;28;20381;-57
2021/04/03 06:04:24;;;;;;;23.55;8.13;;;4.90;89.90;;;;;;5013399;28;20033;-60
2021/04/03 06:06:50;;;;;;;24.33;8.05;;;4.90;89.20;;;;;;5021546;28;20037;-56
2021/04/03 06:09:16;;;;;;;33.20;8.00;;;4.90;89.10;;;;;;5012660;28;20034;-55
2021/04/03 06:11:44;;;;;;;21.33;7.20;;;4.90;89.60;;;;;;5021320;28;20033;-58
2021/04/03 06:14:09;;;;;;;23.30;7.93;;;4.80;89.80;;;;;;5013076;28;20045;-61
2021/04/03 06:16:38;;;;;;;19.85;8.40;;;4.70;90.10;;;;;;5022046;28;20030;-59
2021/04/03 06:19:19;;;;;;;21.30;9.63;;;4.80;90.10;;;;;;5014381;28;20022;-58
2021/04/03 06:21:47;;;;;;;26.00;8.50;;;4.80;89.60;;;;;;5014405;28;20110;-60
2021/04/03 06:24:17;;;;;;;21.55;7.45;;;4.90;89.40;;;;;;5013394;28;20111;-60
2021/04/03 06:26:58;;;;;;;26.13;8.75;;;4.90;89.40;;;;;;5021803;28;20031;-61
2021/04/03 06:29:28;;;;;;;32.25;8.68;;;4.90;89.80;;;;;;5020458;28;20048;-57
2021/04/03 06:31:55;;;;;;;34.65;10.55;;;4.90;89.50;;;;;;5023843;28;20025;-60
2021/04/03 06:34:32;;;;;;;24.45;9.95;;;4.90;89.60;;;;;;5020067;28;20466;-60
2021/04/03 06:36:58;;;;;;;33.65;9.95;;;4.80;90.00;;;;;;5014972;28;20116;-60
2021/04/03 06:39:24;;;;;;;24.00;8.80;;;4.60;90.30;;;;;;5019415;28;20033;-59
2021/04/03 06:41:51;;;;;;;25.50;8.45;;;4.70;90.10;;;;;;5019902;28;20037;-59
2021/04/03 06:44:17;;;;;;;20.65;8.63;;;4.80;90.10;;;;;;5012723;28;20026;-59
2021/04/03 06:46:45;;;;;;;24.35;9.85;;;4.90;89.70;;;;;;5015884;28;20037;-60
2021/04/03 06:49:11;;;;;;;22.63;9.93;;;5.00;89.30;;;;;;5011926;28;20512;-59
2021/04/03 06:51:38;;;;;;;24.15;9.23;;;4.90;90.20;;;;;;5014610;28;20049;-62
2021/04/03 06:54:06;;;;;;;21.95;9.68;;;4.90;90.10;;;;;;5012628;28;20128;-62
2021/04/03 06:56:36;;;;;;;25.98;9.20;;;5.00;89.90;;;;;;5012634;28;20053;-60
2021/04/03 06:59:05;;;;;;;26.80;9.48;;;5.10;89.00;;;;;;5011596;28;20029;-61
2021/04/03 07:01:36;;;;;;;25.40;10.23;;;5.10;89.20;;;;;;5013027;28;20037;-60
2021/04/03 07:04:09;;;;;;;26.27;8.80;;;5.20;89.30;;;;;;5011935;28;20092;-61
2021/04/03 07:06:37;;;;;;;23.27;9.20;;;5.10;88.90;;;;;;5017333;28;20033;-62
2021/04/03 07:09:05;;;;;;;23.15;9.30;;;5.10;88.80;;;;;;5010039;28;20108;-61
2021/04/03 07:11:32;;;;;;;24.92;9.75;;;4.90;89.20;;;;;;5011228;28;20022;-61
2021/04/03 07:14:00;;;;;;;23.48;10.15;;;5.00;89.30;;;;;;5012873;28;20033;-59
2021/04/03 07:16:27;;;;;;;25.67;11.27;;;5.20;88.70;;;;;;5013221;28;20061;-61
2021/04/03 07:18:55;;;;;;;25.00;9.00;;;5.30;88.70;;;;;;5011385;28;20038;-60
2021/04/03 07:21:21;;;;;;;24.25;8.73;;;5.40;88.50;;;;;;5019390;28;20549;-59
2021/04/03 07:23:49;;;;;;;25.45;9.77;;;5.40;87.50;;;;;;5017480;28;20094;-58
2021/04/03 07:26:16;;;;;;;21.58;8.27;;;5.40;87.60;;;;;;5011055;28;20037;-60
2021/04/03 07:28:42;;;;;;;21.85;9.07;;;5.30;87.70;;;;;;5012018;28;20088;-57
2021/04/03 07:31:09;;;;;;;20.63;9.05;;;5.50;87.80;;;;;;5010845;28;20069;-60
2021/04/03 07:33:49;;;;;;;30.55;9.40;;;5.60;86.90;;;;;;5011363;28;20082;-61
2021/04/03 07:36:40;;;;;;;22.58;10.10;;;5.40;87.40;;;;;;5015270;28;20120;-60
2021/04/03 07:39:25;;;;;;;25.58;9.25;;;5.30;88.30;;;;;;4998937;28;20119;-62
2021/04/03 07:41:51;;;;;;;19.00;9.20;;;5.40;87.80;;;;;;5011174;28;20041;-61
2021/04/03 07:44:16;;;;;;;20.85;8.55;;;5.50;87.40;;;;;;5010317;28;20030;-59
2021/04/03 07:46:45;;;;;;;20.55;8.40;;;5.50;86.40;;;;;;5012630;28;20026;-61
2021/04/03 07:49:30;;;;;;;23.17;9.43;;;5.50;86.10;;;;;;5011149;28;20026;-60
2021/04/03 07:51:55;;;;;;;22.85;8.48;;;5.60;86.40;;;;;;5006861;28;20057;-62
2021/04/03 07:54:29;;;;;;;19.27;8.45;;;5.50;87.20;;;;;;5011326;28;20121;-61
2021/04/03 07:56:57;;;;;;;16.67;8.65;;;5.80;85.60;;;;;;5005675;28;20045;-61
2021/04/03 07:59:48;;;;;;;19.52;7.55;;;6.00;85.00;;;;;;5011070;28;20112;-60
2021/04/03 08:02:19;;;;;;;22.27;8.15;;;6.20;85.10;;;;;;5039099;28;20033;-60
2021/04/03 08:04:44;;;;;;;21.30;7.97;;;6.10;84.60;;;;;;5012039;28;20428;-61
2021/04/03 08:07:10;;;;;;;24.25;9.05;;;5.90;84.60;;;;;;5020277;28;20084;-57
2021/04/03 08:09:37;;;;;;;21.13;8.10;;;5.80;85.20;;;;;;5011095;28;20429;-61
2021/04/03 08:12:05;;;;;;;19.70;8.80;;;5.80;85.70;;;;;;5017261;28;20489;-56
2021/04/03 08:14:32;;;;;;;19.77;7.80;;;5.90;84.90;;;;;;5015032;28;20037;-61
2021/04/03 08:16:58;;;;;;;18.35;9.77;;;6.10;84.70;;;;;;5024492;28;20383;-61
2021/04/03 08:19:26;;;;;;;18.85;8.52;;;6.30;84.40;;;;;;5014631;28;20081;-61
2021/04/03 08:21:51;;;;;;;17.98;7.15;;;6.40;84.40;;;;;;5013955;28;20047;-58
2021/04/03 08:24:19;;;;;;;16.80;7.65;;;6.50;82.30;;;;;;5014538;28;20557;-58
2021/04/03 08:26:46;;;;;;;19.23;7.57;;;6.40;82.00;;;;;;5025620;28;20022;-61
2021/04/03 08:29:29;;;;;;;17.20;7.70;;;6.60;81.70;;;;;;5014793;28;20411;-59
2021/04/03 08:31:56;;;;;;;16.02;7.45;;;6.60;80.80;;;;;;5025430;28;20087;-60
2021/04/03 08:34:22;;;;;;;17.23;7.25;;;6.60;80.50;;;;;;5014711;28;20041;-59
2021/04/03 08:36:49;;;;;;;20.42;7.90;;;6.60;80.00;;;;;;5014532;28;20096;-63
2021/04/03 08:39:16;;;;;;;14.23;7.15;;;6.50;80.50;;;;;;5016157;28;20026;-62
2021/04/03 08:41:47;;;;;;;21.40;8.27;;;6.60;80.20;;;;;;5025665;28;20099;-60
2021/04/03 08:44:16;;;;;;;19.27;7.40;;;6.80;79.90;;;;;;5014173;28;20045;-61
2021/04/03 08:46:46;;;;;;;15.23;6.60;;;7.00;79.20;;;;;;5025697;28;20107;-59
2021/04/03 08:49:12;;;;;;;17.13;7.40;;;7.00;76.00;;;;;;5014339;28;20081;-60
2021/04/03 08:51:38;;;;;;;12.57;6.85;;;7.40;76.20;;;;;;5015274;28;20026;-58
2021/04/03 08:54:04;;;;;;;15.18;6.47;;;7.70;75.30;;;;;;5013987;28;20732;-61
2021/04/03 08:56:31;;;;;;;19.73;7.72;;;7.90;74.30;;;;;;5019899;28;20041;-61
2021/04/03 08:58:59;;;;;;;12.48;5.60;;;8.10;73.00;;;;;;5014969;28;20041;-60
2021/04/03 09:01:30;;;;;;;13.63;6.25;;;8.10;69.20;;;;;;5022292;28;20041;-60
2021/04/03 09:04:02;;;;;;;11.68;5.32;;;8.00;70.10;;;;;;5015610;28;20041;-58
2021/04/03 09:06:52;;;;;;;11.00;5.40;;;7.80;67.20;;;;;;5015800;28;20022;-60
2021/04/03 09:09:20;;;;;;;13.80;5.68;;;7.70;68.70;;;;;;5014162;28;20092;-62
2021/04/03 09:12:01;;;;;;;16.02;5.45;;;7.80;67.70;;;;;;5015747;28;20034;-61
2021/04/03 09:14:29;;;;;;;15.45;5.25;;;8.00;68.10;;;;;;5016444;28;20116;-61
2021/04/03 09:16:56;;;;;;;11.43;5.20;;;8.00;69.10;;;;;;5017489;28;20077;-60
2021/04/03 09:19:30;;;;;;;13.52;5.80;;;8.10;67.50;;;;;;5015458;28;20058;-57
2021/04/03 09:21:57;;;;;;;10.32;4.70;;;8.30;67.20;;;;;;5000244;28;20204;-61
2021/04/03 09:24:38;;;;;;;11.77;4.63;;;8.40;64.70;;;;;;5003959;28;20049;-60
2021/04/03 09:27:13;;;;;;;8.50;4.30;;;8.40;63.80;;;;;;4998233;28;20037;-58
2021/04/03 09:29:40;;;;;;;7.28;3.45;;;8.40;57.60;;;;;;5013647;28;20212;-60
2021/04/03 09:32:13;;;;;;;7.72;3.45;;;8.80;57.20;;;;;;5012923;28;20037;-58
2021/04/03 09:34:39;;;;;;;6.72;3.35;;;8.90;56.10;;;;;;5012724;28;20061;-58
2021/04/03 09:37:30;;;;;;;9.13;3.45;;;8.90;56.30;;;;;;5012667;28;20030;-58
2021/04/03 09:39:57;;;;;;;7.80;3.38;;;9.10;55.00;;;;;;5012791;28;20045;-61
2021/04/03 09:42:24;;;;;;;6.82;3.17;;;9.20;54.90;;;;;;5018956;28;20036;-61
2021/04/03 09:44:51;;;;;;;6.35;3.03;;;9.40;55.10;;;;;;5021981;28;20034;-61
2021/04/03 09:47:17;;;;;;;4.93;3.03;;;9.40;54.20;;;;;;4997185;28;20042;-58
2021/04/03 09:49:45;;;;;;;4.13;2.67;;;9.30;52.80;;;;;;5018261;28;20061;-59
2021/04/03 09:52:13;;;;;;;5.28;2.50;;;9.20;51.00;;;;;;5015715;28;20032;-59
2021/04/03 09:54:39;;;;;;;3.55;2.80;;;9.20;50.60;;;;;;5013300;28;20034;-57
2021/04/03 09:57:05;;;;;;;6.40;2.60;;;9.40;50.50;;;;;;5015771;28;20028;-58
2021/04/03 09:59:31;;;;;;;6.07;3.08;;;9.60;50.30;;;;;;5012625;28;20029;-60
2021/04/03 10:01:59;;;;;;;6.47;3.22;;;9.50;50.50;;;;;;5016449;28;20034;-60
2021/04/03 10:04:25;;;;;;;7.65;3.20;;;9.50;50.80;;;;;;5013035;28;20026;-59
2021/04/03 10:06:51;;;;;;;6.97;2.72;;;9.50;51.70;;;;;;5018924;28;20034;-60
2021/04/03 10:09:18;;;;;;;6.15;2.78;;;9.40;51.60;;;;;;5010027;28;20060;-61
2021/04/03 10:11:44;;;;;;;4.70;2.92;;;9.50;50.60;;;;;;5005454;28;20030;-61
2021/04/03 10:14:10;;;;;;;5.80;2.63;;;9.60;50.00;;;;;;5001874;28;20050;-59
2021/04/03 10:16:36;;;;;;;3.83;2.63;;;9.50;50.40;;;;;;5010011;28;20152;-60
2021/04/03 10:19:01;;;;;;;8.43;2.97;;;9.50;50.60;;;;;;5005438;28;20407;-59
2021/04/03 10:21:28;;;;;;;6.70;3.28;;;9.40;51.50;;;;;;5008060;28;20034;-60
2021/04/03 10:23:53;;;;;;;5.53;3.30;;;9.60;50.80;;;;;;5006339;28;20042;-61
2021/04/03 10:26:19;;;;;;;7.45;2.92;;;9.70;50.30;;;;;;5011198;28;20026;-61
2021/04/03 10:28:45;;;;;;;6.78;3.30;;;9.70;51.50;;;;;;5010569;28;20029;-61
2021/04/03 10:31:11;;;;;;;6.30;2.20;;;9.70;47.40;;;;;;5007775;28;20533;-60
2021/04/03 10:33:37;;;;;;;3.70;1.88;;;9.50;45.30;;;;;;5010385;28;20034;-59
2021/04/03 10:36:05;;;;;;;3.88;1.85;;;9.30;45.70;;;;;;5006215;28;20030;-60
2021/04/03 10:38:30;;;;;;;3.65;2.13;;;9.30;46.60;;;;;;4999110;28;20045;-61
2021/04/03 10:40:56;;;;;;;3.00;2.05;;;9.50;46.80;;;;;;5021187;28;20037;-57
2021/04/03 10:43:21;;;;;;;4.55;2.45;;;9.50;45.60;;;;;;5003826;28;20022;-61
2021/04/03 10:45:47;;;;;;;6.40;4.38;;;9.50;47.00;;;;;;5004772;28;20498;-60
2021/04/03 10:48:13;;;;;;;4.63;2.35;;;9.70;46.90;;;;;;5020637;28;20131;-60
2021/04/03 10:50:40;;;;;;;5.05;2.80;;;9.80;47.70;;;;;;5012162;28;20490;-60
2021/04/03 10:53:06;;;;;;;4.57;2.83;;;9.60;50.20;;;;;;5012214;28;20510;-61
2021/04/03 10:55:32;;;;;;;7.43;2.70;;;9.30;49.90;;;;;;5006172;28;20037;-60
2021/04/03 10:57:58;;;;;;;6.20;2.83;;;9.30;49.50;;;;;;5004562;28;20041;-61
2021/04/03 11:00:24;;;;;;;6.38;2.75;;;9.20;48.90;;;;;;4992410;28;20117;-62
2021/04/03 11:02:50;;;;;;;7.43;2.65;;;9.30;49.50;;;;;;5012118;28;20042;-60
2021/04/03 11:05:16;;;;;;;6.50;2.78;;;9.50;49.20;;;;;;4999387;28;20050;-61
2021/04/03 11:07:41;;;;;;;3.63;2.20;;;9.60;49.30;;;;;;5022591;28;20038;-59
2021/04/03 11:10:07;;;;;;;5.55;2.78;;;9.50;49.20;;;;;;5015226;28;20485;-59
2021/04/03 11:12:33;;;;;;;6.03;2.80;;;9.30;50.10;;;;;;5011707;28;20058;-61
2021/04/03 11:14:59;;;;;;;5.10;2.70;;;9.50;49.90;;;;;;5007014;28;20034;-61
2021/04/03 11:17:24;;;;;;;6.22;2.60;;;9.70;49.40;;;;;;5008181;28;20099;-62
2021/04/03 11:19:50;;;;;;;4.15;2.70;;;9.80;49.40;;;;;;4991447;28;20030;-61
2021/04/03 11:22:15;;;;;;;3.85;2.60;;;9.80;50.20;;;;;;5005506;28;20045;-61
2021/04/03 11:24:41;;;;;;;4.82;2.35;;;9.80;49.60;;;;;;5000247;28;20038;-58
2021/04/03 11:27:07;;;;;;;6.82;2.63;;;9.80;49.40;;;;;;4989788;28;20039;-59
2021/04/03 11:29:32;;;;;;;4.22;2.50;;;9.90;48.80;;;;;;4992865;28;20034;-61
2021/04/03 11:31:58;;;;;;;5.93;2.38;;;9.90;48.30;;;;;;5025064;28;20038;-62
2021/04/03 11:34:25;;;;;;;5.50;2.38;;;9.90;48.50;;;;;;5016769;28;20061;-61
2021/04/03 11:36:51;;;;;;;5.82;2.53;;;9.90;49.20;;;;;;5011204;28;20046;-61
2021/04/03 11:39:16;;;;;;;6.32;2.65;;;9.90;49.40;;;;;;5006130;28;20025;-63
2021/04/03 11:41:42;;;;;;;5.75;2.60;;;9.80;49.40;;;;;;5006251;28;20037;-62
2021/04/03 11:44:07;;;;;;;6.53;3.05;;;9.90;49.90;;;;;;4997967;28;20026;-60
2021/04/03 11:46:33;;;;;;;5.15;2.60;;;9.80;49.40;;;;;;4995620;28;20456;-60
2021/04/03 11:48:59;;;;;;;4.05;2.20;;;10.10;49.60;;;;;;4995974;28;20054;-60
2021/04/03 11:51:24;;;;;;;4.72;2.20;;;10.20;47.40;;;;;;4992997;28;20038;-61
2021/04/03 11:53:50;;;;;;;4.00;2.40;;;10.20;47.60;;;;;;4995336;28;20034;-60
2021/04/03 11:56:16;;;;;;;5.97;3.47;;;10.20;47.50;;;;;;4996693;28;20026;-60
2021/04/03 11:58:42;;;;;;;6.75;2.55;;;10.10;47.70;;;;;;4997534;28;20030;-61
2021/04/03 12:01:08;;;;;;;5.35;2.25;;;10.20;47.50;;;;;;4994188;28;20041;-61
2021/04/03 12:03:33;;;;;;;6.32;2.40;;;10.20;47.40;;;;;;5013912;28;20022;-55
2021/04/03 12:05:59;;;;;;;4.88;1.95;;;10.20;45.90;;;;;;5009405;28;20049;-61
2021/04/03 12:08:25;;;;;;;3.47;2.47;;;10.10;45.60;;;;;;5000950;28;20038;-61
2021/04/03 12:10:51;;;;;;;4.32;2.53;;;10.10;44.10;;;;;;4999639;28;20031;-60
2021/04/03 12:13:17;;;;;;;3.20;2.08;;;10.00;44.70;;;;;;5004115;28;20033;-61
2021/04/03 12:15:43;;;;;;;4.68;2.17;;;10.00;44.90;;;;;;5000335;28;20025;-59
2021/04/03 12:18:08;;;;;;;3.75;2.20;;;10.10;45.00;;;;;;5008949;28;20092;-61
2021/04/03 12:20:34;;;;;;;4.45;2.17;;;10.10;44.50;;;;;;4993306;28;20050;-61
2021/04/03 12:23:00;;;;;;;3.58;2.03;;;10.30;44.50;;;;;;4995981;28;20034;-61
2021/04/03 12:25:27;;;;;;;2.58;2.03;;;10.40;43.10;;;;;;5007322;28;20120;-62
2021/04/03 12:27:52;;;;;;;3.83;1.90;;;10.40;43.60;;;;;;5014182;28;20145;-59
2021/04/03 12:30:18;;;;;;;5.22;2.33;;;10.70;43.70;;;;;;5011913;28;20049;-58
2021/04/03 12:32:44;;;;;;;3.63;2.35;;;10.80;43.30;;;;;;5028791;28;20037;-62
2021/04/03 12:35:10;;;;;;;4.80;2.50;;;10.80;43.70;;;;;;5013206;28;20038;-62
2021/04/03 12:37:36;;;;;;;3.15;2.30;;;10.60;44.20;;;;;;5015155;28;20037;-62
2021/04/03 12:40:03;;;;;;;3.08;2.60;;;10.60;44.30;;;;;;5012538;28;20112;-62
2021/04/03 12:42:30;;;;;;;3.35;2.50;;;10.60;44.40;;;;;;5017717;28;20141;-60
2021/04/03 12:44:56;;;;;;;3.45;2.50;;;10.40;46.40;;;;;;5012884;28;20124;-59
2021/04/03 12:47:21;;;;;;;4.40;2.90;;;10.10;48.20;;;;;;5015033;28;20148;-60
2021/04/03 12:49:47;;;;;;;4.30;2.50;;;10.30;48.10;;;;;;5012837;28;20026;-59
2021/04/03 12:52:13;;;;;;;5.68;3.10;;;10.50;47.90;;;;;;5013497;28;20038;-61